createdAt,value
2022-12-31T00:00:55.125Z,1.90
2022-12-31T00:10:58.073Z,2.43
2022-12-31T00:21:06.221Z,2.20
2022-12-31T00:31:13.585Z,2.40
2022-12-31T00:41:19.459Z,2.10
2022-12-31T00:51:27.486Z,2.40
2022-12-31T01:01:33.830Z,1.42
2022-12-31T01:11:37.351Z,0.93
2022-12-31T01:21:43.516Z,1.02
2022-12-31T01:31:46.620Z,1.00
2022-12-31T01:41:50.978Z,0.80
2022-12-31T01:51:59.027Z,0.50
2022-12-31T02:02:03.718Z,0.55
2022-12-31T02:22:22.830Z,1.20
2022-12-31T02:32:33.056Z,2.10
2022-12-31T02:42:35.993Z,2.85
2022-12-31T02:52:52.439Z,3.50
2022-12-31T03:02:56.807Z,4.40
2022-12-31T03:13:01.184Z,2.67
2022-12-31T03:23:07.156Z,2.90
2022-12-31T03:33:11.606Z,2.10
2022-12-31T03:43:14.969Z,2.75
2022-12-31T03:53:19.509Z,3.50
2022-12-31T04:03:22.528Z,1.90
2022-12-31T04:13:26.849Z,1.30
2022-12-31T04:23:30.037Z,1.27
2022-12-31T04:33:35.005Z,1.00
2022-12-31T04:43:37.967Z,0.90
2022-12-31T04:53:42.450Z,1.00
2022-12-31T05:03:45.417Z,0.65
2022-12-31T05:13:49.779Z,0.90
2022-12-31T05:23:52.946Z,0.70
2022-12-31T05:33:57.607Z,0.63
2022-12-31T05:54:05.141Z,0.90
2022-12-31T06:04:08.108Z,0.63
2022-12-31T06:14:13.259Z,0.52
2022-12-31T06:24:16.234Z,0.73
2022-12-31T06:34:20.789Z,0.63
2022-12-31T06:54:27.871Z,0.60
2022-12-31T07:05:02.016Z,0.80
2022-12-31T07:15:15.809Z,0.80
2022-12-31T07:25:20.551Z,0.90
2022-12-31T07:35:35.473Z,1.33
2022-12-31T07:45:47.740Z,0.88
2022-12-31T07:55:56.466Z,0.80
2022-12-31T08:06:12.111Z,0.80
2022-12-31T08:16:17.001Z,1.05
2022-12-31T08:26:28.896Z,0.70
2022-12-31T08:36:43.149Z,0.93
2022-12-31T08:46:57.254Z,0.90
2022-12-31T08:57:10.959Z,0.70
2022-12-31T09:07:17.355Z,1.00
2022-12-31T09:17:43.097Z,1.20
2022-12-31T09:27:54.708Z,1.48
2022-12-31T09:38:11.293Z,2.08
2022-12-31T09:48:42.442Z,1.90
2022-12-31T09:58:56.832Z,1.42
2022-12-31T10:09:15.901Z,1.65
2022-12-31T10:19:45.898Z,1.30
2022-12-31T10:29:57.833Z,1.58
2022-12-31T10:40:21.645Z,1.88
2022-12-31T10:50:56.138Z,1.27
2022-12-31T11:01:06.517Z,1.30
2022-12-31T11:11:28.480Z,1.95
2022-12-31T11:21:48.614Z,1.52
2022-12-31T11:32:05.487Z,2.25
2022-12-31T11:42:21.683Z,2.13
2022-12-31T11:52:47.807Z,1.67
2022-12-31T12:02:59.049Z,1.38
2022-12-31T12:13:02.103Z,2.13
2022-12-31T12:23:16.140Z,2.80
2022-12-31T12:33:21.053Z,1.73
2022-12-31T12:43:29.037Z,1.63
2022-12-31T12:53:44.929Z,2.25
2022-12-31T13:04:36.055Z,2.00
2022-12-31T13:14:49.150Z,1.92
2022-12-31T13:25:02.392Z,1.70
2022-12-31T13:35:23.343Z,2.08
2022-12-31T13:45:31.748Z,1.88
2022-12-31T13:55:41.326Z,2.38
2022-12-31T14:05:51.218Z,1.90
2022-12-31T14:16:08.322Z,2.67
2022-12-31T14:26:19.780Z,2.20
2022-12-31T14:36:39.635Z,4.13
2022-12-31T14:46:58.261Z,2.47
2022-12-31T14:57:11.173Z,2.90
2022-12-31T15:07:23.588Z,3.28
2022-12-31T15:17:38.075Z,3.10
2022-12-31T15:37:47.327Z,2.07
2022-12-31T15:47:57.461Z,2.50
2022-12-31T15:58:06.143Z,2.70
2022-12-31T16:08:19.503Z,2.13
2022-12-31T16:18:23.863Z,2.55
2022-12-31T16:28:30.934Z,3.00
2022-12-31T16:38:36.828Z,2.15
2022-12-31T16:48:40.670Z,2.00
2022-12-31T16:58:46.403Z,2.78
2022-12-31T17:09:05.847Z,3.70
2022-12-31T17:19:32.092Z,3.53
2022-12-31T17:29:35.579Z,7.35
2022-12-31T17:39:49.092Z,4.15
2022-12-31T17:49:54.743Z,4.15
2022-12-31T17:59:59.133Z,3.72
2022-12-31T18:10:02.023Z,3.97
2022-12-31T18:20:07.133Z,4.63
2022-12-31T18:30:11.490Z,4.90
2022-12-31T18:40:15.989Z,3.13
2022-12-31T18:50:19.156Z,8.07
2022-12-31T19:00:23.685Z,4.55
2022-12-31T19:20:32.185Z,12.50
2022-12-31T19:30:36.549Z,5.50
2022-12-31T19:40:41.399Z,3.83
2022-12-31T19:50:46.546Z,3.63
2022-12-31T20:00:56.835Z,3.10
2022-12-31T20:21:17.956Z,3.97
2022-12-31T20:31:22.500Z,4.22
2022-12-31T20:51:32.396Z,4.77
2022-12-31T21:02:11.617Z,4.65
2022-12-31T21:12:17.251Z,3.92
2022-12-31T21:22:23.081Z,4.32
2022-12-31T21:32:26.091Z,4.30
2022-12-31T21:42:30.510Z,4.80
2022-12-31T21:52:35.232Z,4.63
2022-12-31T22:02:59.252Z,5.38
2022-12-31T22:13:02.948Z,3.88
2022-12-31T22:23:09.349Z,3.53
2022-12-31T22:33:12.266Z,5.22
2022-12-31T22:43:16.696Z,5.25
2022-12-31T23:03:23.973Z,9.27
2022-12-31T23:23:55.745Z,11.82
2022-12-31T23:33:58.995Z,11.50
2022-12-31T23:44:03.345Z,7.55
2022-12-31T23:54:06.378Z,5.70
